Hauptseite
METAR-TAF:

METAR-TAF

Flughäfen :

Corumbá, Mato Grosso do Sul, Brasilien

Breite: 19-05S, Länge: 057-30W, Höhe: 130 m

Beobachtung

Neuester Wetterbericht von vor 1 Stunde und 3 Minuten, um 23:00 UTC
Windstille
Temperatur 26°C
Luftfeuchtigkeit 84%
Luftdruck 1007 hPa
Sichtweite 10 km oder mehr
Aufgelockert bewölkt in der Höhe von 2500 ft

METAR: SBCR 192300Z 00000KT 9999 SCT025 26/23 Q1007

Zeit: 21:03 (00:03 UTC)

Prognose

Neuester Wetterbericht von vor 2 Stunden und 33 Minuten, um 21:30 UTC
Gültige Prognose vom 20 um 00 UTC bis 20 um 24 UTC
Wind 5 kt aus Ost/Südost
Sichtweite 10 km oder mehr
Aufgelockert bewölkt in der Höhe von 2000 ft
Übergehend zu
vom 20 um 16 UTC bis 20 um 18 UTC
Durchbrochene Bewölkung in der Höhe von 2500 ft
Leicht bewölkt in der Höhe von 3000 ft, Towering cumulus.

TAF: SBCR 192130Z 2000/2024 12005KT 9999 SCT020 TN23/2008Z TX30/2018Z BECMG 2016/2018 BKN025 FEW030TCU RMK PDW

Wetterbeobachtungen und Prognosen von mehr als 4000 Flughäfen (METAR und TAF Bericht).

Die verfügbaren Stationen werden durch gelbe und rote Markierungen auf der Karte dargestellt.

Führen Sie die Maus auf sie, um den Namen der Station zu sehen.

Darauf klicken, um die Beobachtung von Wetterbeobachtungen und Prognosen zu sehen.

Um die Karte zu ändern : klicken Sie auf den grünen Tasten mit einem schwarzen Kreuz Zum Vergrößern, auf den grünen Button mit einem Gedankenstrich zu verkleinern, oder auf die grünen Pfeile für benachbarte Karten.


METAR-TAF: